Time;durP1;ratioP1;P1;durP2;ratioP2;P2;SDS_P1;SDS_P2;PMS_P1;PMS_P2;Temp;Humidity;BMP_temperature;BMP_pressure;BME280_temperature;BME280_humidity;BME280_pressure;Samples;Min_cycle;Max_cycle;Signal;HPM_P1;HPM_P2
2023/01/08 00:01:07;;;;;;;0.93;0.82;;;10.30;89.00;;;;;;5143127;28;20047;-78
2023/01/08 00:03:36;;;;;;;0.82;0.80;;;10.20;88.90;;;;;;5143109;28;20031;-77
2023/01/08 00:06:03;;;;;;;1.05;0.88;;;10.30;88.90;;;;;;5106877;28;20031;-77
2023/01/08 00:08:31;;;;;;;1.27;0.93;;;10.30;88.80;;;;;;5142925;28;20114;-77
2023/01/08 00:10:57;;;;;;;0.88;0.70;;;10.30;88.80;;;;;;5142490;28;20035;-77
2023/01/08 00:13:22;;;;;;;1.35;0.88;;;10.30;88.80;;;;;;5124338;28;20419;-78
2023/01/08 00:15:48;;;;;;;1.70;0.90;;;10.30;88.90;;;;;;5144659;28;20035;-77
2023/01/08 00:18:14;;;;;;;1.38;1.00;;;10.20;88.90;;;;;;5109907;28;20054;-78
2023/01/08 00:20:42;;;;;;;1.25;0.90;;;10.20;88.80;;;;;;5123161;28;20096;-75
2023/01/08 00:23:12;;;;;;;1.02;0.90;;;10.30;88.80;;;;;;5105468;28;20035;-77
2023/01/08 00:25:38;;;;;;;0.68;0.68;;;10.40;88.90;;;;;;5141480;28;20051;-77
2023/01/08 00:28:04;;;;;;;1.80;1.05;;;10.40;88.90;;;;;;5141747;28;20068;-77
2023/01/08 00:30:30;;;;;;;2.35;0.93;;;10.30;88.80;;;;;;5125105;28;20390;-78
2023/01/08 00:32:55;;;;;;;1.70;0.80;;;10.40;88.90;;;;;;5123481;28;20039;-77
2023/01/08 00:35:21;;;;;;;1.33;0.90;;;10.40;88.90;;;;;;5088488;28;20042;-78
2023/01/08 00:37:48;;;;;;;0.63;0.60;;;10.40;88.90;;;;;;5106750;28;20062;-77
2023/01/08 00:40:14;;;;;;;1.15;0.80;;;10.40;88.90;;;;;;5107613;28;20075;-77
2023/01/08 00:42:40;;;;;;;1.10;0.80;;;10.30;88.90;;;;;;5106932;28;20391;-78
2023/01/08 00:45:06;;;;;;;1.45;0.70;;;10.40;88.90;;;;;;5143088;28;20062;-77
2023/01/08 00:47:32;;;;;;;1.35;0.90;;;10.40;88.90;;;;;;5123080;28;20035;-78
2023/01/08 00:49:58;;;;;;;1.38;0.90;;;10.40;88.90;;;;;;5122077;28;20047;-78
2023/01/08 00:52:24;;;;;;;1.48;0.88;;;10.40;88.90;;;;;;5140697;28;20035;-77
2023/01/08 00:54:49;;;;;;;1.42;0.95;;;10.50;88.80;;;;;;5140328;28;20043;-78
2023/01/08 00:57:15;;;;;;;1.45;0.80;;;10.40;88.80;;;;;;5139437;28;20528;-78
2023/01/08 00:59:40;;;;;;;1.35;0.90;;;10.50;88.90;;;;;;5123057;28;20073;-77
2023/01/08 01:02:06;;;;;;;1.10;0.80;;;10.40;88.90;;;;;;5138318;28;20043;-77
2023/01/08 01:04:32;;;;;;;1.30;0.93;;;10.40;88.90;;;;;;5123867;28;20058;-78
2023/01/08 01:06:57;;;;;;;1.42;1.05;;;10.40;88.90;;;;;;5105514;28;20039;-77
2023/01/08 01:09:25;;;;;;;1.27;0.90;;;10.40;88.80;;;;;;5141778;28;20035;-78
2023/01/08 01:11:51;;;;;;;1.35;1.08;;;10.40;88.80;;;;;;5141804;28;20035;-77
2023/01/08 01:14:16;;;;;;;1.00;0.80;;;10.40;88.90;;;;;;5121618;28;20059;-77
2023/01/08 01:16:42;;;;;;;0.77;0.70;;;10.40;88.90;;;;;;5106046;28;20088;-78
2023/01/08 01:19:08;;;;;;;0.85;0.80;;;10.40;88.90;;;;;;5140639;28;20061;-77
2023/01/08 01:21:34;;;;;;;1.58;0.90;;;10.40;88.90;;;;;;5139651;28;20087;-77
2023/01/08 01:24:02;;;;;;;1.42;0.95;;;10.50;89.00;;;;;;5140541;28;20043;-77
2023/01/08 01:26:28;;;;;;;1.60;1.00;;;10.40;88.90;;;;;;5121451;28;20390;-77
2023/01/08 01:28:56;;;;;;;2.63;1.02;;;10.40;88.90;;;;;;5139526;28;20046;-77
2023/01/08 01:31:23;;;;;;;1.58;0.95;;;10.40;88.80;;;;;;5120851;28;20135;-77
2023/01/08 01:33:49;;;;;;;1.88;1.00;;;10.40;88.90;;;;;;5120137;28;20472;-77
2023/01/08 01:36:16;;;;;;;1.23;0.70;;;10.40;88.90;;;;;;5119806;28;20103;-77
2023/01/08 01:38:44;;;;;;;1.38;0.85;;;10.40;88.90;;;;;;5122020;28;20050;-78
2023/01/08 01:41:27;;;;;;;1.67;0.90;;;10.40;89.00;;;;;;5139260;28;20043;-77
2023/01/08 01:43:55;;;;;;;1.67;1.05;;;10.40;89.00;;;;;;5121011;28;20138;-77
2023/01/08 01:46:36;;;;;;;0.88;0.77;;;10.30;89.00;;;;;;5139378;28;20047;-77
2023/01/08 01:49:08;;;;;;;2.25;1.00;;;10.30;89.00;;;;;;5105036;28;20035;-77
2023/01/08 01:51:36;;;;;;;1.00;0.90;;;10.30;89.00;;;;;;5138976;28;20452;-77
2023/01/08 01:54:03;;;;;;;2.58;0.90;;;10.30;89.00;;;;;;5119320;28;20062;-77
2023/01/08 01:56:31;;;;;;;1.38;0.93;;;10.30;89.00;;;;;;5120139;28;20042;-77
2023/01/08 01:58:57;;;;;;;1.23;0.80;;;10.30;89.10;;;;;;5139124;28;20075;-77
2023/01/08 02:01:23;;;;;;;1.80;0.80;;;10.20;89.10;;;;;;5137263;28;20120;-77
2023/01/08 02:03:49;;;;;;;0.95;0.73;;;10.20;89.10;;;;;;5137512;28;20088;-77
2023/01/08 02:06:36;;;;;;;1.15;0.85;;;10.30;89.20;;;;;;5139418;28;20035;-77
2023/01/08 02:09:23;;;;;;;1.10;0.82;;;10.30;89.40;;;;;;5103763;28;20426;-77
2023/01/08 02:15:01;;;;;;;0.80;0.80;;;10.20;89.20;;;;;;5123024;28;20549;-78
2023/01/08 02:17:57;;;;;;;2.17;1.10;;;10.30;89.20;;;;;;5120928;28;20039;-77
2023/01/08 02:20:30;;;;;;;1.20;0.95;;;10.20;89.10;;;;;;5107635;28;20047;-77
2023/01/08 02:23:18;;;;;;;1.70;0.90;;;10.20;89.10;;;;;;5120438;28;20039;-78
2023/01/08 02:26:07;;;;;;;2.00;1.00;;;10.30;89.10;;;;;;5138963;28;20383;-77
2023/01/08 02:28:39;;;;;;;1.63;0.90;;;10.30;89.10;;;;;;5122954;28;20088;-77
2023/01/08 02:31:06;;;;;;;1.52;0.88;;;10.30;89.10;;;;;;5138800;28;20067;-77
2023/01/08 02:33:32;;;;;;;1.05;0.80;;;10.30;89.00;;;;;;5138181;28;20436;-77
2023/01/08 02:36:14;;;;;;;1.55;1.10;;;10.30;89.00;;;;;;5119728;28;20049;-77
2023/01/08 02:38:50;;;;;;;1.88;1.08;;;10.30;89.00;;;;;;5118828;28;20425;-77
2023/01/08 02:41:18;;;;;;;1.13;0.82;;;10.30;89.00;;;;;;5139920;28;20099;-78
2023/01/08 02:43:48;;;;;;;1.00;0.77;;;10.30;88.90;;;;;;5141285;28;20052;-78
2023/01/08 02:46:21;;;;;;;1.90;1.10;;;10.30;88.90;;;;;;5122117;28;20088;-77
2023/01/08 02:48:49;;;;;;;1.42;0.93;;;10.40;89.00;;;;;;5124473;28;20134;-77
2023/01/08 02:51:29;;;;;;;2.38;1.00;;;10.30;89.00;;;;;;5125177;28;20039;-77
2023/01/08 02:54:01;;;;;;;2.35;1.20;;;10.20;89.10;;;;;;5126182;28;20039;-78
2023/01/08 02:56:29;;;;;;;;;;;10.20;89.20;;;;;;5127950;28;20856;-78
2023/01/08 02:58:56;;;;;;;1.85;1.10;;;10.20;89.20;;;;;;5127961;28;19954;-78
2023/01/08 03:01:23;;;;;;;1.42;0.90;;;10.10;89.30;;;;;;5152021;28;20486;-78
2023/01/08 03:03:54;;;;;;;1.23;0.80;;;10.10;89.40;;;;;;5149023;28;20053;-78
2023/01/08 03:06:20;;;;;;;1.15;0.80;;;10.00;89.50;;;;;;5147299;28;20047;-78
2023/01/08 03:08:49;;;;;;;1.13;0.70;;;9.90;89.60;;;;;;5129064;28;20039;-78
2023/01/08 03:11:18;;;;;;;1.90;0.63;;;9.90;89.70;;;;;;5128702;28;20057;-78
2023/01/08 03:14:05;;;;;;;1.20;0.63;;;9.70;89.80;;;;;;5145484;28;20062;-78
2023/01/08 03:16:36;;;;;;;0.50;0.50;;;9.70;90.00;;;;;;5145908;28;20043;-78
2023/01/08 03:19:08;;;;;;;1.35;0.60;;;9.60;90.00;;;;;;5125076;28;20486;-78
2023/01/08 03:21:36;;;;;;;0.65;0.50;;;9.60;90.00;;;;;;5144489;28;20096;-78
2023/01/08 03:24:03;;;;;;;0.57;0.55;;;9.50;90.00;;;;;;5143691;27;20035;-78
2023/01/08 03:26:31;;;;;;;0.88;0.50;;;9.50;90.10;;;;;;5146236;28;20092;-78
2023/01/08 03:28:57;;;;;;;0.65;0.50;;;9.50;90.10;;;;;;5112303;28;20402;-78
2023/01/08 03:31:27;;;;;;;1.25;0.43;;;9.40;90.10;;;;;;5111663;28;20039;-78
2023/01/08 03:33:53;;;;;;;0.50;0.40;;;9.30;90.10;;;;;;5127487;28;20079;-79
2023/01/08 03:36:22;;;;;;;1.40;0.55;;;9.30;90.10;;;;;;5094030;28;20133;-78
2023/01/08 03:38:58;;;;;;;0.40;0.40;;;9.30;90.20;;;;;;5143383;28;20061;-78
2023/01/08 03:41:27;;;;;;;1.15;0.40;;;9.20;90.20;;;;;;5145031;28;20039;-78
2023/01/08 03:43:53;;;;;;;0.40;0.35;;;9.20;90.20;;;;;;5144397;28;20044;-78
2023/01/08 03:46:23;;;;;;;1.00;0.35;;;9.20;90.20;;;;;;5142160;28;20043;-78
2023/01/08 03:48:50;;;;;;;0.88;0.57;;;9.10;90.20;;;;;;5139196;28;20092;-78
2023/01/08 03:51:17;;;;;;;1.63;0.40;;;9.10;90.20;;;;;;5102993;28;20051;-78
2023/01/08 03:53:43;;;;;;;2.25;0.50;;;9.10;90.20;;;;;;5138035;28;20043;-78
2023/01/08 03:56:08;;;;;;;0.95;0.30;;;9.00;90.30;;;;;;5137551;28;20095;-78
2023/01/08 03:58:34;;;;;;;0.57;0.50;;;9.00;90.30;;;;;;5137966;28;20035;-78
2023/01/08 04:01:00;;;;;;;0.30;0.30;;;9.00;90.30;;;;;;5118826;28;20063;-78
2023/01/08 04:03:25;;;;;;;1.13;0.30;;;8.90;90.40;;;;;;5138692;28;20066;-78
2023/01/08 04:05:51;;;;;;;0.30;0.20;;;8.90;90.40;;;;;;5139132;28;20049;-78
2023/01/08 04:08:16;;;;;;;0.20;0.20;;;8.90;90.40;;;;;;5121041;28;20035;-78
2023/01/08 04:10:42;;;;;;;0.98;0.32;;;8.90;90.50;;;;;;5086854;28;20390;-78
2023/01/08 04:13:08;;;;;;;0.52;0.28;;;8.80;90.50;;;;;;5137819;28;20042;-77
2023/01/08 04:15:33;;;;;;;0.35;0.30;;;8.90;90.50;;;;;;5120355;28;20043;-78
2023/01/08 04:17:59;;;;;;;1.02;0.32;;;8.80;90.50;;;;;;5106148;28;20054;-78
2023/01/08 04:20:25;;;;;;;0.98;0.40;;;8.80;90.50;;;;;;5141717;28;20047;-78
2023/01/08 04:22:50;;;;;;;0.47;0.17;;;8.80;90.50;;;;;;5122899;28;20043;-78
2023/01/08 04:25:16;;;;;;;0.28;0.20;;;8.80;90.50;;;;;;5140197;28;20043;-78
2023/01/08 04:27:42;;;;;;;0.32;0.20;;;8.80;90.50;;;;;;5121773;28;20047;-78
2023/01/08 04:30:08;;;;;;;1.15;0.45;;;8.80;90.50;;;;;;5122799;28;20032;-78
2023/01/08 04:32:33;;;;;;;0.22;0.22;;;8.80;90.50;;;;;;5121004;28;20068;-78
2023/01/08 04:34:59;;;;;;;0.65;0.28;;;8.80;90.50;;;;;;5141933;27;20039;-78
2023/01/08 04:37:25;;;;;;;0.20;0.20;;;8.80;90.50;;;;;;5126419;28;20050;-78
2023/01/08 04:39:51;;;;;;;1.38;0.20;;;8.80;90.50;;;;;;5107827;28;20043;-78
2023/01/08 04:42:16;;;;;;;1.75;0.20;;;8.80;90.60;;;;;;5126573;28;20047;-78
2023/01/08 04:44:42;;;;;;;0.90;0.30;;;8.80;90.60;;;;;;5108042;28;20053;-78
2023/01/08 04:47:07;;;;;;;0.60;0.20;;;8.70;90.60;;;;;;5124334;28;20367;-78
2023/01/08 04:49:33;;;;;;;0.82;0.20;;;8.70;90.60;;;;;;5124469;28;20039;-79
2023/01/08 04:51:59;;;;;;;0.20;0.20;;;8.80;90.60;;;;;;5106987;28;20027;-78
2023/01/08 04:54:24;;;;;;;0.63;0.22;;;8.80;90.60;;;;;;5124213;28;20050;-78
2023/01/08 04:56:50;;;;;;;0.43;0.30;;;8.80;90.60;;;;;;5124242;28;20525;-79
2023/01/08 04:59:16;;;;;;;0.20;0.20;;;8.80;90.60;;;;;;5143098;28;20039;-78
2023/01/08 05:01:42;;;;;;;1.20;0.30;;;8.80;90.60;;;;;;5142002;28;20050;-78
2023/01/08 05:04:09;;;;;;;0.98;0.30;;;8.80;90.60;;;;;;5107393;28;20043;-78
2023/01/08 05:06:35;;;;;;;0.30;0.20;;;8.80;90.60;;;;;;5124343;28;20039;-78
2023/01/08 05:09:00;;;;;;;0.68;0.20;;;8.80;90.50;;;;;;5125801;28;20131;-78
2023/01/08 05:11:26;;;;;;;0.15;0.15;;;8.80;90.50;;;;;;5125909;28;20050;-78
2023/01/08 05:13:52;;;;;;;0.22;0.10;;;8.80;90.50;;;;;;5126904;28;20039;-78
2023/01/08 05:16:18;;;;;;;0.30;0.20;;;8.80;90.50;;;;;;5143666;28;20043;-78
2023/01/08 05:18:46;;;;;;;0.20;0.20;;;8.80;90.50;;;;;;5124051;28;20439;-78
2023/01/08 05:21:12;;;;;;;0.65;0.30;;;8.80;90.50;;;;;;5144127;28;20047;-78
2023/01/08 05:23:38;;;;;;;0.90;0.20;;;8.80;90.60;;;;;;5144363;28;20529;-78
2023/01/08 05:26:06;;;;;;;1.33;0.35;;;8.80;90.60;;;;;;5127547;28;20122;-78
2023/01/08 05:28:32;;;;;;;0.60;0.30;;;8.80;90.50;;;;;;5092317;28;20043;-78
2023/01/08 05:30:59;;;;;;;0.20;0.20;;;8.80;90.50;;;;;;5109711;28;20030;-77
2023/01/08 05:33:25;;;;;;;0.38;0.30;;;8.80;90.50;;;;;;5109762;28;20043;-78
2023/01/08 05:35:51;;;;;;;0.40;0.20;;;8.80;90.50;;;;;;5125211;28;20047;-77
2023/01/08 05:38:16;;;;;;;0.22;0.22;;;8.80;90.50;;;;;;5142835;28;20035;-78
2023/01/08 05:40:42;;;;;;;0.30;0.30;;;8.80;90.50;;;;;;5125134;28;20035;-77
2023/01/08 05:43:08;;;;;;;1.27;0.25;;;8.80;90.50;;;;;;5124455;28;20046;-78
2023/01/08 05:45:34;;;;;;;0.30;0.30;;;8.80;90.50;;;;;;5144962;27;20039;-78
2023/01/08 05:48:03;;;;;;;0.50;0.43;;;8.80;90.40;;;;;;5124490;28;20041;-78
2023/01/08 05:50:29;;;;;;;0.50;0.40;;;8.90;90.50;;;;;;5143567;28;20057;-78
2023/01/08 05:52:54;;;;;;;0.30;0.30;;;8.90;90.50;;;;;;5125236;28;20121;-78
2023/01/08 05:55:20;;;;;;;0.20;0.20;;;8.90;90.50;;;;;;5124031;28;20043;-78
2023/01/08 05:57:45;;;;;;;0.98;0.40;;;8.80;90.40;;;;;;5141718;28;20039;-78
2023/01/08 06:00:12;;;;;;;0.63;0.43;;;8.90;90.40;;;;;;5123265;28;20432;-78
2023/01/08 06:02:38;;;;;;;1.42;0.50;;;8.90;90.50;;;;;;5142257;28;20044;-77
2023/01/08 06:05:04;;;;;;;0.52;0.40;;;8.80;90.40;;;;;;5142250;28;20126;-78
2023/01/08 06:07:29;;;;;;;0.47;0.45;;;8.80;90.40;;;;;;5124201;28;20047;-78
2023/01/08 06:09:55;;;;;;;0.77;0.60;;;8.80;90.40;;;;;;5144632;28;20192;-78
2023/01/08 06:12:21;;;;;;;0.45;0.32;;;8.80;90.40;;;;;;5142295;28;20505;-78
2023/01/08 06:14:46;;;;;;;0.63;0.28;;;8.80;90.40;;;;;;5126077;28;20053;-78
2023/01/08 06:17:13;;;;;;;2.15;0.50;;;8.80;90.40;;;;;;5108704;28;20035;-78
2023/01/08 06:19:39;;;;;;;1.08;0.50;;;8.80;90.40;;;;;;5142881;28;20083;-78
2023/01/08 06:22:05;;;;;;;1.33;0.52;;;8.80;90.40;;;;;;5108671;28;20051;-78
2023/01/08 06:24:31;;;;;;;0.30;0.30;;;8.80;90.40;;;;;;5144154;28;20039;-78
2023/01/08 06:26:56;;;;;;;0.45;0.30;;;8.80;90.40;;;;;;5144919;28;20126;-78
2023/01/08 06:29:22;;;;;;;0.77;0.40;;;8.90;90.40;;;;;;5126211;28;20043;-78
2023/01/08 06:31:47;;;;;;;0.50;0.30;;;8.80;90.40;;;;;;5124869;28;20076;-78
2023/01/08 06:34:13;;;;;;;0.30;0.30;;;8.70;90.30;;;;;;5123394;28;20046;-78
2023/01/08 06:36:39;;;;;;;0.85;0.30;;;8.70;90.30;;;;;;5141180;28;20046;-78
2023/01/08 06:39:06;;;;;;;0.68;0.38;;;8.60;90.40;;;;;;5123073;28;20039;-77
2023/01/08 06:41:32;;;;;;;0.20;0.20;;;8.60;90.40;;;;;;5123870;28;20035;-78
2023/01/08 06:43:57;;;;;;;0.20;0.20;;;8.50;90.50;;;;;;5123992;28;20060;-78
2023/01/08 06:46:23;;;;;;;0.22;0.20;;;8.60;90.60;;;;;;5140514;28;20046;-78
2023/01/08 06:48:49;;;;;;;0.40;0.20;;;8.40;90.50;;;;;;5140429;28;20405;-78
2023/01/08 06:51:14;;;;;;;0.20;0.20;;;8.40;90.60;;;;;;5089170;28;20035;-77
2023/01/08 06:53:40;;;;;;;0.22;0.20;;;8.40;90.70;;;;;;5140020;28;20124;-78
2023/01/08 06:56:08;;;;;;;0.10;0.10;;;8.40;90.70;;;;;;5104948;28;20146;-77
2023/01/08 06:58:34;;;;;;;0.60;0.30;;;8.30;90.70;;;;;;5104582;28;20062;-78
2023/01/08 07:00:59;;;;;;;0.57;0.35;;;8.30;90.70;;;;;;5140915;28;20031;-77
2023/01/08 07:03:25;;;;;;;0.68;0.30;;;8.30;90.70;;;;;;5122106;28;20039;-77
2023/01/08 07:05:51;;;;;;;0.28;0.20;;;8.30;90.70;;;;;;5140553;28;20051;-78
2023/01/08 07:08:17;;;;;;;0.95;0.30;;;8.20;90.70;;;;;;5123698;28;20036;-78
2023/01/08 07:10:43;;;;;;;0.25;0.20;;;8.20;90.70;;;;;;5140011;28;20039;-77
2023/01/08 07:13:11;;;;;;;0.50;0.20;;;8.10;90.70;;;;;;5121537;28;20039;-78
2023/01/08 07:15:38;;;;;;;0.52;0.30;;;8.20;90.70;;;;;;5140321;28;20069;-77
2023/01/08 07:18:04;;;;;;;0.65;0.38;;;8.10;90.70;;;;;;5141836;28;20075;-78
2023/01/08 07:20:31;;;;;;;0.40;0.30;;;8.10;90.70;;;;;;5123153;28;20490;-78
2023/01/08 07:23:01;;;;;;;1.02;0.50;;;8.10;90.60;;;;;;5123005;28;20043;-78
2023/01/08 07:25:27;;;;;;;0.87;0.40;;;8.10;90.60;;;;;;5122793;28;20034;-78
2023/01/08 07:27:53;;;;;;;0.30;0.30;;;8.10;90.60;;;;;;5121566;28;20051;-78
2023/01/08 07:30:18;;;;;;;1.42;0.40;;;8.10;90.60;;;;;;5121217;28;20062;-77
2023/01/08 07:32:44;;;;;;;0.38;0.30;;;8.00;90.50;;;;;;5122060;28;20043;-77
2023/01/08 07:35:10;;;;;;;0.45;0.22;;;8.00;90.50;;;;;;5137976;28;20043;-77
2023/01/08 07:37:39;;;;;;;1.35;0.30;;;8.00;90.60;;;;;;5141989;28;20074;-79
2023/01/08 07:40:06;;;;;;;0.95;0.30;;;8.00;90.60;;;;;;5111049;28;20031;-78
2023/01/08 07:42:31;;;;;;;0.68;0.57;;;8.00;90.60;;;;;;5130134;28;20076;-79
2023/01/08 07:44:57;;;;;;;0.30;0.30;;;8.00;90.50;;;;;;5093083;28;20106;-79
2023/01/08 07:47:22;;;;;;;0.55;0.30;;;7.90;90.50;;;;;;5125578;28;20038;-79
2023/01/08 07:49:48;;;;;;;0.60;0.50;;;7.90;90.50;;;;;;5106346;28;20042;-79
2023/01/08 07:52:13;;;;;;;0.73;0.30;;;7.90;90.50;;;;;;5122521;28;20035;-78
2023/01/08 07:54:39;;;;;;;1.38;0.40;;;7.90;90.50;;;;;;5124426;28;20066;-79
2023/01/08 07:57:05;;;;;;;0.38;0.22;;;7.80;90.40;;;;;;5127065;28;20079;-79
2023/01/08 07:59:30;;;;;;;1.15;0.30;;;7.90;90.50;;;;;;5123164;28;20039;-78
2023/01/08 08:01:56;;;;;;;0.38;0.38;;;7.80;90.50;;;;;;5124808;28;20054;-78
2023/01/08 08:04:23;;;;;;;0.68;0.40;;;7.90;90.50;;;;;;5141353;28;20043;-78
2023/01/08 08:06:49;;;;;;;0.73;0.40;;;7.90;90.40;;;;;;5105354;28;20428;-78
2023/01/08 08:09:14;;;;;;;0.40;0.22;;;7.80;90.40;;;;;;5139927;27;20039;-78
2023/01/08 08:11:40;;;;;;;0.30;0.30;;;7.80;90.40;;;;;;5147974;28;20091;-78
2023/01/08 08:14:06;;;;;;;0.70;0.38;;;7.80;90.40;;;;;;5126131;28;20045;-78
2023/01/08 08:16:32;;;;;;;0.75;0.40;;;7.80;90.40;;;;;;5145891;28;20039;-78
2023/01/08 08:18:58;;;;;;;0.95;0.60;;;7.80;90.30;;;;;;5148078;28;20728;-78
2023/01/08 08:21:24;;;;;;;0.55;0.35;;;7.80;90.30;;;;;;5129949;28;20402;-78
2023/01/08 08:23:49;;;;;;;0.47;0.30;;;7.80;90.30;;;;;;5127021;28;20043;-78
2023/01/08 08:26:15;;;;;;;1.08;0.52;;;7.80;90.30;;;;;;5148644;28;20035;-78
2023/01/08 08:28:40;;;;;;;0.90;0.45;;;7.80;90.30;;;;;;5148500;28;20133;-78
2023/01/08 08:31:06;;;;;;;0.50;0.28;;;7.80;90.30;;;;;;5095030;28;20430;-78
2023/01/08 08:33:33;;;;;;;0.73;0.30;;;7.80;90.20;;;;;;5111842;28;20042;-78
2023/01/08 08:35:59;;;;;;;0.50;0.35;;;7.80;90.20;;;;;;5147144;28;20084;-78
2023/01/08 08:38:25;;;;;;;1.88;0.57;;;7.80;90.20;;;;;;5126403;28;20436;-78
2023/01/08 08:40:51;;;;;;;0.47;0.30;;;7.70;90.20;;;;;;5126709;28;20043;-78
2023/01/08 08:43:17;;;;;;;0.47;0.30;;;7.80;90.20;;;;;;5126311;28;20099;-78
2023/01/08 08:45:43;;;;;;;0.75;0.40;;;7.80;90.10;;;;;;5129217;28;20122;-78
2023/01/08 08:48:10;;;;;;;1.20;0.50;;;7.80;90.10;;;;;;5108384;28;20050;-78
2023/01/08 08:50:37;;;;;;;0.45;0.30;;;7.80;90.10;;;;;;5144781;28;20062;-78
2023/01/08 08:53:05;;;;;;;2.28;0.45;;;7.80;90.10;;;;;;5127833;28;20043;-78
2023/01/08 08:55:31;;;;;;;1.05;0.43;;;7.80;90.00;;;;;;5143546;28;20046;-78
2023/01/08 08:58:10;;;;;;;0.60;0.40;;;7.80;90.00;;;;;;5145249;28;20050;-78
2023/01/08 09:00:38;;;;;;;2.63;0.50;;;7.90;90.00;;;;;;5110740;28;20505;-78
2023/01/08 09:03:03;;;;;;;2.78;0.43;;;7.90;90.00;;;;;;5126167;28;20042;-77
2023/01/08 09:05:29;;;;;;;1.35;0.50;;;7.90;89.80;;;;;;5127093;28;20044;-77
2023/01/08 09:07:55;;;;;;;1.58;0.65;;;8.00;89.90;;;;;;5127181;28;20092;-78
2023/01/08 09:10:22;;;;;;;1.85;0.73;;;8.00;89.80;;;;;;5108888;28;20043;-78
2023/01/08 09:12:48;;;;;;;2.00;0.50;;;8.00;89.70;;;;;;5107973;28;20043;-78
2023/01/08 09:15:14;;;;;;;1.88;0.50;;;8.00;89.60;;;;;;5127090;28;20051;-78
2023/01/08 09:17:40;;;;;;;1.08;0.43;;;8.10;89.60;;;;;;5142670;28;20042;-78
2023/01/08 09:20:06;;;;;;;0.63;0.32;;;8.10;89.40;;;;;;5145728;28;20035;-78
2023/01/08 09:22:32;;;;;;;2.33;0.50;;;8.20;89.40;;;;;;5108349;28;20035;-78
2023/01/08 09:24:57;;;;;;;0.88;0.50;;;8.20;89.30;;;;;;5107254;28;20043;-78
2023/01/08 09:27:23;;;;;;;0.57;0.30;;;8.10;89.30;;;;;;5126433;28;20389;-78
2023/01/08 09:29:49;;;;;;;1.73;0.60;;;8.20;89.30;;;;;;5124517;28;20043;-77
2023/01/08 09:32:14;;;;;;;0.98;0.40;;;8.20;89.30;;;;;;5123045;28;20428;-76
2023/01/08 09:34:40;;;;;;;1.17;0.40;;;8.20;89.20;;;;;;5100823;28;20554;-77
2023/01/08 09:37:06;;;;;;;1.02;0.40;;;8.20;89.20;;;;;;5134868;28;20050;-77
2023/01/08 09:39:32;;;;;;;1.60;0.40;;;8.10;89.20;;;;;;5100004;28;20043;-78
2023/01/08 09:42:01;;;;;;;2.40;0.60;;;8.20;89.30;;;;;;5119475;28;20047;-77
2023/01/08 09:44:31;;;;;;;0.55;0.32;;;8.20;89.40;;;;;;5138166;28;20045;-77
2023/01/08 09:46:58;;;;;;;1.40;0.60;;;8.20;89.30;;;;;;5136982;28;20042;-77
2023/01/08 09:49:30;;;;;;;0.65;0.30;;;8.20;89.30;;;;;;5117747;28;20632;-77
2023/01/08 09:51:58;;;;;;;0.43;0.40;;;8.20;89.30;;;;;;5136635;28;20405;-77
2023/01/08 09:54:25;;;;;;;1.33;0.52;;;8.10;89.40;;;;;;5120390;28;20070;-77
2023/01/08 09:56:51;;;;;;;0.95;0.50;;;8.10;89.40;;;;;;5118045;28;20047;-77
2023/01/08 09:59:17;;;;;;;1.95;0.68;;;8.10;89.50;;;;;;5117574;28;20054;-77
2023/01/08 10:01:44;;;;;;;1.15;0.68;;;8.10;89.60;;;;;;5102026;28;20039;-77
2023/01/08 10:04:16;;;;;;;0.32;0.32;;;8.00;89.60;;;;;;5120850;28;20027;-77
2023/01/08 10:06:49;;;;;;;2.15;0.60;;;8.00;89.60;;;;;;5116886;28;20043;-77
2023/01/08 10:09:15;;;;;;;1.83;0.43;;;8.00;89.60;;;;;;5116555;28;20049;-77
2023/01/08 10:11:46;;;;;;;0.80;0.45;;;8.10;89.60;;;;;;5117138;28;20439;-77
2023/01/08 10:14:23;;;;;;;1.25;0.50;;;8.10;89.70;;;;;;5136706;28;20043;-77
2023/01/08 10:16:56;;;;;;;0.30;0.30;;;8.10;89.70;;;;;;5135410;28;20126;-77
2023/01/08 10:19:22;;;;;;;0.80;0.47;;;8.10;89.70;;;;;;5100629;28;20043;-77
2023/01/08 10:21:48;;;;;;;0.30;0.30;;;8.10;89.70;;;;;;5137114;28;20474;-77
2023/01/08 10:24:14;;;;;;;1.95;0.40;;;8.20;89.60;;;;;;5100167;28;20039;-78
2023/01/08 10:26:40;;;;;;;1.52;0.50;;;8.20;89.60;;;;;;5137781;28;20510;-78
2023/01/08 10:29:08;;;;;;;0.85;0.47;;;8.20;89.50;;;;;;5118136;28;20399;-76
2023/01/08 10:31:54;;;;;;;1.13;0.50;;;8.20;89.50;;;;;;5116442;28;20397;-76
2023/01/08 10:34:38;;;;;;;0.85;0.55;;;8.20;89.50;;;;;;5135081;28;20035;-76
2023/01/08 10:37:20;;;;;;;0.50;0.38;;;8.30;89.50;;;;;;5133518;28;20037;-77
2023/01/08 10:39:47;;;;;;;1.00;0.40;;;8.40;89.50;;;;;;5136017;28;20089;-77
2023/01/08 10:42:15;;;;;;;0.80;0.32;;;8.40;89.40;;;;;;5136737;28;20043;-77
2023/01/08 10:44:55;;;;;;;2.50;0.60;;;8.50;89.30;;;;;;5138136;28;20460;-77
2023/01/08 10:47:22;;;;;;;1.63;0.52;;;8.50;89.20;;;;;;5117923;28;20050;-76
2023/01/08 10:49:48;;;;;;;2.28;0.60;;;8.60;89.10;;;;;;5101164;28;20423;-77
2023/01/08 10:52:31;;;;;;;0.95;0.60;;;8.60;88.90;;;;;;5101327;28;20046;-77
2023/01/08 10:55:10;;;;;;;1.65;0.68;;;8.70;88.90;;;;;;5117310;28;20447;-77
2023/01/08 10:57:36;;;;;;;1.73;0.65;;;8.70;88.80;;;;;;5138043;28;20092;-77
2023/01/08 11:00:01;;;;;;;1.13;0.57;;;8.70;88.70;;;;;;5085233;28;20035;-77
2023/01/08 11:02:34;;;;;;;1.98;0.57;;;8.80;88.70;;;;;;5138920;28;20050;-77
2023/01/08 11:05:00;;;;;;;1.88;0.70;;;8.80;88.70;;;;;;5100411;28;20054;-77
2023/01/08 11:07:27;;;;;;;1.38;0.50;;;8.80;88.60;;;;;;5116387;28;20033;-77
2023/01/08 11:09:53;;;;;;;1.60;0.60;;;8.90;88.70;;;;;;5101493;28;20054;-77
2023/01/08 11:12:34;;;;;;;0.88;0.50;;;8.90;88.60;;;;;;5116775;28;20031;-77
2023/01/08 11:15:01;;;;;;;1.15;0.60;;;8.90;88.60;;;;;;5099844;28;21007;-76
2023/01/08 11:17:27;;;;;;;1.45;0.60;;;8.80;88.70;;;;;;5118285;28;20039;-77
2023/01/08 11:19:53;;;;;;;0.82;0.40;;;8.80;88.80;;;;;;5117190;28;20134;-77
2023/01/08 11:22:22;;;;;;;2.30;0.60;;;8.80;88.80;;;;;;5117020;28;20118;-77
2023/01/08 11:24:50;;;;;;;0.77;0.60;;;8.70;88.80;;;;;;5117215;28;20039;-77
2023/01/08 11:27:35;;;;;;;0.30;0.30;;;8.80;89.00;;;;;;5118068;28;20039;-77
2023/01/08 11:30:16;;;;;;;0.30;0.30;;;8.80;89.10;;;;;;5136875;28;20039;-77
2023/01/08 11:32:56;;;;;;;0.88;0.40;;;8.80;89.10;;;;;;5102544;28;20100;-77
2023/01/08 11:35:27;;;;;;;0.77;0.50;;;8.90;89.10;;;;;;5120204;28;20043;-76
2023/01/08 11:37:58;;;;;;;1.55;0.60;;;9.00;89.00;;;;;;5137176;28;20050;-77
2023/01/08 11:40:37;;;;;;;1.08;0.30;;;9.00;88.90;;;;;;5137400;28;20046;-77
2023/01/08 11:43:22;;;;;;;0.47;0.40;;;9.10;88.80;;;;;;5119354;28;20058;-77
2023/01/08 11:45:59;;;;;;;1.52;0.60;;;9.00;88.60;;;;;;5142887;27;20137;-77
2023/01/08 11:48:50;;;;;;;2.05;0.57;;;9.10;88.60;;;;;;5142339;28;20443;-77
2023/01/08 11:51:42;;;;;;;2.00;0.55;;;9.10;88.60;;;;;;5142141;28;20443;-76
2023/01/08 11:54:43;;;;;;;1.13;0.60;;;9.10;88.60;;;;;;5109840;28;20066;-77
2023/01/08 11:57:33;;;;;;;0.47;0.40;;;9.20;88.60;;;;;;5125639;28;20038;-77
2023/01/08 12:00:24;;;;;;;1.25;0.60;;;9.30;88.50;;;;;;5140244;28;20043;-77
2023/01/08 12:03:03;;;;;;;0.70;0.45;;;9.40;88.40;;;;;;5142691;28;20085;-77
2023/01/08 12:05:53;;;;;;;0.70;0.43;;;9.50;88.10;;;;;;5106836;28;20050;-76
2023/01/08 12:08:47;;;;;;;1.88;0.45;;;9.50;87.90;;;;;;5139041;28;20067;-77
2023/01/08 12:11:24;;;;;;;0.93;0.38;;;9.60;87.90;;;;;;5139284;28;20039;-77
2023/01/08 12:14:17;;;;;;;0.38;0.30;;;9.70;87.80;;;;;;5142049;28;20035;-77
2023/01/08 12:16:59;;;;;;;0.32;0.22;;;9.80;87.60;;;;;;5121062;28;20068;-77
2023/01/08 12:19:52;;;;;;;0.20;0.20;;;9.80;87.40;;;;;;5121214;28;20039;-77
2023/01/08 12:22:31;;;;;;;0.20;0.20;;;9.90;87.30;;;;;;5119800;28;20035;-77
2023/01/08 12:25:31;;;;;;;0.40;0.20;;;10.00;87.30;;;;;;5138937;28;20039;-77
2023/01/08 12:28:27;;;;;;;0.47;0.40;;;10.10;87.10;;;;;;5140068;28;20398;-77
2023/01/08 12:31:26;;;;;;;0.43;0.30;;;10.10;86.80;;;;;;5123264;28;20050;-77
2023/01/08 12:34:09;;;;;;;1.17;0.40;;;10.10;86.90;;;;;;5140747;28;20042;-76
2023/01/08 12:36:41;;;;;;;0.30;0.30;;;10.10;87.40;;;;;;5140705;28;20045;-77
2023/01/08 12:39:14;;;;;;;1.15;0.38;;;10.20;86.80;;;;;;5122071;28;20118;-76
2023/01/08 12:41:41;;;;;;;0.57;0.20;;;10.20;86.80;;;;;;5121945;28;20092;-77
2023/01/08 12:44:10;;;;;;;0.32;0.30;;;10.40;86.80;;;;;;5122456;28;20104;-77
2023/01/08 12:46:42;;;;;;;0.32;0.30;;;10.30;86.60;;;;;;5123871;28;20436;-76
2023/01/08 12:49:12;;;;;;;0.32;0.32;;;10.40;86.40;;;;;;5106236;28;20379;-77
2023/01/08 12:51:48;;;;;;;0.45;0.30;;;10.40;86.30;;;;;;5141346;28;20091;-76
2023/01/08 12:54:33;;;;;;;1.05;0.40;;;10.50;86.30;;;;;;5140811;28;20386;-76
2023/01/08 12:57:38;;;;;;;0.50;0.25;;;10.40;86.40;;;;;;5139567;27;20043;-77
2023/01/08 13:00:24;;;;;;;0.20;0.20;;;10.50;86.30;;;;;;5128342;28;20494;-77
2023/01/08 13:02:56;;;;;;;0.20;0.20;;;10.50;86.30;;;;;;5139737;28;20047;-77
2023/01/08 13:05:35;;;;;;;0.20;0.20;;;10.50;86.10;;;;;;5140091;28;20486;-76
2023/01/08 13:08:07;;;;;;;0.30;0.20;;;10.50;86.10;;;;;;5140057;28;20039;-77
2023/01/08 13:10:38;;;;;;;0.98;0.30;;;10.40;86.20;;;;;;5104990;28;20049;-77